Time;durP1;ratioP1;P1;durP2;ratioP2;P2;SDS_P1;SDS_P2;PMS_P1;PMS_P2;Temp;Humidity;BMP_temperature;BMP_pressure;BME280_temperature;BME280_humidity;BME280_pressure;Samples;Min_cycle;Max_cycle;Signal;HPM_P1;HPM_P2
2023/06/03 00:00:21;;;;;;;6.43;2.53;;;12.20;99.90;;;;;;4929857;28;20019;-65
2023/06/03 00:02:52;;;;;;;8.43;2.15;;;12.20;99.90;;;;;;4889180;29;21072;-66
2023/06/03 00:05:21;;;;;;;8.70;2.15;;;12.20;99.90;;;;;;4933316;29;20031;-66
2023/06/03 00:07:47;;;;;;;4.15;1.92;;;12.20;99.90;;;;;;4935695;29;20082;-66
2023/06/03 00:10:13;;;;;;;8.75;2.60;;;12.20;99.90;;;;;;4915974;29;20048;-66
2023/06/03 00:12:39;;;;;;;7.78;1.70;;;12.20;99.90;;;;;;4931239;29;20024;-65
2023/06/03 00:15:06;;;;;;;8.15;2.58;;;12.20;99.90;;;;;;4940655;29;20027;-67
2023/06/03 00:17:33;;;;;;;10.48;2.83;;;12.20;99.90;;;;;;4929580;29;20019;-65
2023/06/03 00:20:06;;;;;;;7.00;2.45;;;12.20;99.90;;;;;;4930245;29;20042;-66
2023/06/03 00:22:36;;;;;;;4.13;2.10;;;12.10;99.90;;;;;;4930419;29;20070;-66
2023/06/03 00:25:03;;;;;;;5.90;1.85;;;12.10;99.90;;;;;;4935650;29;20266;-65
2023/06/03 00:27:29;;;;;;;7.47;2.72;;;12.10;99.90;;;;;;4927663;29;20449;-66
2023/06/03 00:29:54;;;;;;;9.13;2.88;;;12.10;99.90;;;;;;4929965;29;20119;-66
2023/06/03 00:32:20;;;;;;;4.47;2.00;;;12.00;99.90;;;;;;4936477;29;20024;-65
2023/06/03 00:34:46;;;;;;;9.57;3.80;;;11.90;99.90;;;;;;4931055;29;20083;-66
2023/06/03 00:37:11;;;;;;;8.73;2.75;;;11.90;99.90;;;;;;4937139;28;20031;-66
2023/06/03 00:39:37;;;;;;;6.25;2.88;;;11.80;99.90;;;;;;4931666;29;20039;-66
2023/06/03 00:42:02;;;;;;;6.32;2.72;;;11.80;99.90;;;;;;4927971;29;20070;-66
2023/06/03 00:44:28;;;;;;;11.02;2.38;;;11.80;99.90;;;;;;4931115;29;20063;-66
2023/06/03 00:46:54;;;;;;;7.13;1.83;;;11.80;99.90;;;;;;4912309;29;20035;-66
2023/06/03 00:49:20;;;;;;;4.00;2.20;;;11.90;99.90;;;;;;4929674;29;20438;-65
2023/06/03 00:51:46;;;;;;;4.30;2.28;;;11.90;99.90;;;;;;4928954;29;20079;-64
2023/06/03 00:54:13;;;;;;;4.88;2.53;;;11.90;99.90;;;;;;4928642;29;20040;-66
2023/06/03 00:56:44;;;;;;;7.45;2.38;;;11.90;99.90;;;;;;4931259;29;20333;-65
2023/06/03 00:59:20;;;;;;;5.65;2.00;;;11.90;99.90;;;;;;4930788;29;20066;-65
2023/06/03 01:01:45;;;;;;;4.80;2.13;;;11.90;99.90;;;;;;4922462;29;20047;-65
2023/06/03 01:04:16;;;;;;;7.13;2.15;;;11.90;99.90;;;;;;4929208;29;20040;-66
2023/06/03 01:06:54;;;;;;;6.47;2.75;;;11.90;99.90;;;;;;4899210;29;20095;-65
2023/06/03 01:09:33;;;;;;;8.32;2.10;;;11.90;99.90;;;;;;4928833;29;20095;-65
2023/06/03 01:12:17;;;;;;;7.45;2.17;;;11.90;99.90;;;;;;4928786;29;20055;-66
2023/06/03 01:14:52;;;;;;;11.68;2.08;;;11.90;99.90;;;;;;4924432;29;20023;-66
2023/06/03 01:17:20;;;;;;;4.75;1.90;;;11.80;99.90;;;;;;4903520;29;20035;-65
2023/06/03 01:19:49;;;;;;;5.38;2.00;;;11.80;99.90;;;;;;4924709;29;20070;-66
2023/06/03 01:22:17;;;;;;;12.85;2.53;;;11.80;99.90;;;;;;4925001;29;21908;-65
2023/06/03 01:24:48;;;;;;;8.30;1.95;;;11.80;99.90;;;;;;4928536;29;20051;-66
2023/06/03 01:27:14;;;;;;;4.70;2.05;;;11.80;99.90;;;;;;4922562;29;20043;-66
2023/06/03 01:29:44;;;;;;;7.50;1.98;;;11.80;99.90;;;;;;4917553;29;20031;-65
2023/06/03 01:32:13;;;;;;;4.45;1.75;;;11.80;99.90;;;;;;4916715;29;20047;-66
2023/06/03 01:34:41;;;;;;;12.63;2.72;;;11.80;99.90;;;;;;4921102;29;20024;-65
2023/06/03 01:37:08;;;;;;;8.50;2.15;;;11.70;99.90;;;;;;4921053;29;20061;-66
2023/06/03 01:39:35;;;;;;;7.40;2.22;;;11.70;99.90;;;;;;4906726;29;20028;-66
2023/06/03 01:42:01;;;;;;;8.65;2.63;;;11.70;99.90;;;;;;4931963;29;20031;-66
2023/06/03 01:44:27;;;;;;;8.05;2.45;;;11.60;99.90;;;;;;4928530;29;20043;-66
2023/06/03 01:46:53;;;;;;;5.20;3.13;;;11.60;99.90;;;;;;4911842;29;20039;-66
2023/06/03 01:49:19;;;;;;;13.77;2.10;;;11.50;99.90;;;;;;4929701;29;20075;-66
2023/06/03 01:51:45;;;;;;;5.95;2.33;;;11.50;99.90;;;;;;4924149;29;20031;-66
2023/06/03 01:54:11;;;;;;;7.40;2.33;;;11.40;99.90;;;;;;4926744;29;20027;-65
2023/06/03 01:56:36;;;;;;;7.00;1.90;;;11.40;99.90;;;;;;4921699;29;20032;-66
2023/06/03 01:59:02;;;;;;;6.75;2.50;;;11.30;99.90;;;;;;4920919;29;20024;-66
2023/06/03 02:01:27;;;;;;;8.68;2.38;;;11.30;99.90;;;;;;4918918;29;20043;-66
2023/06/03 02:03:53;;;;;;;8.18;2.42;;;11.30;99.90;;;;;;4914168;29;20509;-66
2023/06/03 02:06:19;;;;;;;4.30;1.65;;;11.30;99.90;;;;;;4911813;29;20501;-65
2023/06/03 02:08:45;;;;;;;6.85;2.30;;;11.20;99.90;;;;;;4930570;29;20127;-66
2023/06/03 02:11:10;;;;;;;6.18;2.50;;;11.20;99.90;;;;;;4928964;29;20032;-65
2023/06/03 02:13:36;;;;;;;8.13;2.25;;;11.20;99.90;;;;;;4929251;29;20067;-66
2023/06/03 02:16:03;;;;;;;7.38;2.25;;;11.20;99.90;;;;;;4932079;29;20054;-66
2023/06/03 02:18:29;;;;;;;5.22;2.20;;;11.20;99.90;;;;;;4928912;29;20520;-66
2023/06/03 02:20:55;;;;;;;7.35;2.72;;;11.20;99.90;;;;;;4929739;29;20050;-66
2023/06/03 02:23:21;;;;;;;5.28;2.30;;;11.20;99.90;;;;;;4927574;29;20023;-65
2023/06/03 02:25:48;;;;;;;7.95;2.58;;;11.20;99.90;;;;;;4932832;29;20047;-65
2023/06/03 02:28:16;;;;;;;6.82;2.35;;;11.10;99.90;;;;;;4934226;29;20030;-66
2023/06/03 02:30:42;;;;;;;5.57;1.83;;;11.10;99.90;;;;;;4931372;29;20043;-67
2023/06/03 02:33:08;;;;;;;5.93;2.25;;;11.20;99.90;;;;;;4932280;29;20042;-66
2023/06/03 02:35:34;;;;;;;4.80;2.22;;;11.20;99.90;;;;;;4930532;29;20631;-66
2023/06/03 02:38:00;;;;;;;8.50;1.95;;;11.10;99.90;;;;;;4933499;29;20952;-65
2023/06/03 02:40:26;;;;;;;6.25;3.17;;;11.20;99.90;;;;;;4931897;29;20130;-66
2023/06/03 02:42:52;;;;;;;4.38;2.25;;;11.20;99.90;;;;;;4934094;29;20055;-67
2023/06/03 02:45:17;;;;;;;4.18;1.67;;;11.20;99.90;;;;;;4932880;29;20502;-66
2023/06/03 02:47:43;;;;;;;6.93;2.20;;;11.10;99.90;;;;;;4932435;29;20147;-66
2023/06/03 02:50:10;;;;;;;3.78;1.90;;;11.10;99.90;;;;;;4915745;29;20064;-65
2023/06/03 02:52:35;;;;;;;5.75;2.15;;;11.10;99.90;;;;;;4929810;29;20084;-66
2023/06/03 02:55:01;;;;;;;5.63;2.03;;;11.10;99.90;;;;;;4932257;29;20031;-64
2023/06/03 02:57:27;;;;;;;5.20;1.80;;;11.10;99.90;;;;;;4931166;29;20031;-65
2023/06/03 02:59:53;;;;;;;8.50;2.13;;;11.10;99.90;;;;;;4932994;29;20069;-66
2023/06/03 03:02:19;;;;;;;9.45;2.20;;;11.10;99.90;;;;;;4932615;29;20031;-64
2023/06/03 03:04:45;;;;;;;2.85;1.80;;;11.10;99.90;;;;;;4931627;29;20736;-66
2023/06/03 03:07:10;;;;;;;5.50;1.70;;;11.10;99.90;;;;;;4915876;29;20051;-66
2023/06/03 03:09:37;;;;;;;13.48;1.80;;;11.10;99.90;;;;;;4930317;29;20531;-66
2023/06/03 03:12:02;;;;;;;5.10;2.03;;;11.10;99.90;;;;;;4934026;29;20024;-62
2023/06/03 03:14:28;;;;;;;8.73;1.73;;;11.10;99.90;;;;;;4930635;29;20458;-65
2023/06/03 03:16:54;;;;;;;4.45;2.30;;;11.10;99.90;;;;;;4931992;29;20028;-66
2023/06/03 03:19:20;;;;;;;3.90;1.80;;;11.00;99.90;;;;;;4931409;29;20091;-66
2023/06/03 03:21:46;;;;;;;6.13;1.65;;;11.00;99.90;;;;;;4933510;29;20054;-67
2023/06/03 03:24:11;;;;;;;7.13;1.75;;;11.00;99.90;;;;;;4930475;29;20055;-66
2023/06/03 03:26:37;;;;;;;2.78;1.52;;;11.00;99.90;;;;;;4928196;29;20028;-65
2023/06/03 03:29:03;;;;;;;5.60;2.05;;;11.00;99.90;;;;;;4933365;29;20031;-66
2023/06/03 03:31:29;;;;;;;6.32;2.00;;;11.00;99.90;;;;;;4932268;29;20145;-67
2023/06/03 03:33:55;;;;;;;9.93;1.75;;;11.00;99.90;;;;;;4932623;29;20024;-65
2023/06/03 03:36:24;;;;;;;4.20;1.25;;;11.00;99.90;;;;;;4929663;29;20042;-66
2023/06/03 03:39:06;;;;;;;3.60;1.48;;;11.00;99.90;;;;;;4930625;29;20041;-67
2023/06/03 03:41:32;;;;;;;3.45;1.40;;;11.00;99.90;;;;;;4931561;29;20459;-66
2023/06/03 03:43:58;;;;;;;6.45;1.42;;;11.10;99.90;;;;;;4930390;29;20062;-67
2023/06/03 03:46:23;;;;;;;3.33;1.80;;;11.10;99.90;;;;;;4930922;29;20028;-66
2023/06/03 03:48:49;;;;;;;9.60;1.70;;;11.10;99.90;;;;;;4932347;29;20719;-66
2023/06/03 03:51:15;;;;;;;4.63;1.50;;;11.10;99.90;;;;;;4932137;29;20134;-66
2023/06/03 03:53:45;;;;;;;5.15;1.40;;;11.10;99.90;;;;;;4931049;29;20040;-66
2023/06/03 03:56:17;;;;;;;5.65;1.55;;;11.10;99.90;;;;;;4926818;29;20031;-66
2023/06/03 03:58:44;;;;;;;5.13;1.50;;;11.20;99.90;;;;;;4931078;29;20035;-66
2023/06/03 04:01:22;;;;;;;3.65;1.27;;;11.20;99.90;;;;;;4932194;29;20039;-67
2023/06/03 04:03:57;;;;;;;3.25;1.30;;;11.30;99.90;;;;;;4930701;29;20036;-66
2023/06/03 04:06:36;;;;;;;2.25;1.15;;;11.30;99.90;;;;;;4916093;29;20043;-64
2023/06/03 04:09:04;;;;;;;3.42;1.23;;;11.30;99.50;;;;;;4932571;29;20034;-67
2023/06/03 04:11:36;;;;;;;2.80;1.13;;;11.40;99.10;;;;;;4929702;29;20042;-66
2023/06/03 04:14:03;;;;;;;6.65;1.30;;;11.40;99.20;;;;;;4931622;29;20370;-67
2023/06/03 04:16:37;;;;;;;1.83;1.30;;;11.40;98.80;;;;;;4929731;29;20031;-65
2023/06/03 04:19:03;;;;;;;5.07;1.35;;;11.50;98.60;;;;;;4929981;29;20039;-66
2023/06/03 04:21:30;;;;;;;1.30;0.75;;;11.60;97.90;;;;;;4931086;29;20442;-64
2023/06/03 04:23:55;;;;;;;9.48;1.60;;;11.60;98.00;;;;;;4930887;29;20115;-67
2023/06/03 04:26:21;;;;;;;4.38;1.30;;;11.70;97.80;;;;;;4929624;29;20110;-66
2023/06/03 04:28:46;;;;;;;3.10;0.95;;;11.70;97.00;;;;;;4932055;29;20030;-66
2023/06/03 04:31:12;;;;;;;3.72;1.42;;;11.90;97.30;;;;;;4930669;29;20083;-66
2023/06/03 04:33:38;;;;;;;1.25;0.80;;;12.40;96.20;;;;;;4931300;29;20382;-67
2023/06/03 04:36:03;;;;;;;3.28;1.20;;;13.70;94.00;;;;;;4927911;29;20509;-65
2023/06/03 04:38:29;;;;;;;3.05;1.35;;;15.00;91.60;;;;;;4927639;29;20024;-67
2023/06/03 04:40:55;;;;;;;3.97;0.98;;;16.10;90.10;;;;;;4931595;29;20038;-66
2023/06/03 04:43:22;;;;;;;7.22;1.42;;;16.80;86.40;;;;;;4930436;29;20509;-65
2023/06/03 04:45:49;;;;;;;3.92;1.63;;;17.70;84.00;;;;;;4926991;29;20027;-66
2023/06/03 04:48:15;;;;;;;3.88;1.50;;;18.60;79.30;;;;;;4930217;29;20047;-66
2023/06/03 04:50:43;;;;;;;5.47;1.20;;;18.90;80.30;;;;;;4929894;29;20035;-66
2023/06/03 04:53:10;;;;;;;3.20;1.20;;;19.70;75.50;;;;;;4930359;29;20060;-66
2023/06/03 04:55:35;;;;;;;4.07;1.00;;;20.60;74.30;;;;;;4928356;29;20023;-67
2023/06/03 04:58:02;;;;;;;3.15;1.08;;;20.90;71.10;;;;;;4927838;29;20390;-66
2023/06/03 05:00:28;;;;;;;5.75;1.15;;;21.50;70.30;;;;;;4925835;29;20035;-66
2023/06/03 05:02:57;;;;;;;2.05;1.17;;;21.60;69.10;;;;;;4928703;29;20034;-66
2023/06/03 05:05:23;;;;;;;4.35;1.15;;;21.20;70.00;;;;;;4928085;29;20036;-67
2023/06/03 05:07:49;;;;;;;5.32;2.15;;;21.10;70.90;;;;;;4912404;29;20512;-66
2023/06/03 05:10:15;;;;;;;1.17;0.85;;;22.20;67.60;;;;;;4929113;29;20048;-67
2023/06/03 05:12:41;;;;;;;1.83;0.98;;;22.10;68.30;;;;;;4930444;29;20032;-67
2023/06/03 05:15:07;;;;;;;2.28;1.08;;;23.00;67.40;;;;;;4924844;29;20036;-67
2023/06/03 05:17:33;;;;;;;4.57;1.00;;;23.00;65.00;;;;;;4928036;29;20079;-66
2023/06/03 05:19:58;;;;;;;3.85;1.00;;;23.70;63.10;;;;;;4926291;29;20036;-67
2023/06/03 05:22:24;;;;;;;4.70;1.08;;;23.00;64.90;;;;;;4923864;29;20035;-67
2023/06/03 05:24:50;;;;;;;3.50;0.90;;;23.70;62.90;;;;;;4923756;29;20050;-67
2023/06/03 05:27:15;;;;;;;2.60;1.10;;;23.70;64.70;;;;;;4925081;29;20675;-68
2023/06/03 05:29:41;;;;;;;2.20;1.00;;;24.60;61.60;;;;;;4924084;29;20087;-66
2023/06/03 05:32:07;;;;;;;3.22;0.98;;;24.40;61.20;;;;;;4925424;29;20038;-68
2023/06/03 05:34:32;;;;;;;5.15;1.60;;;24.40;61.90;;;;;;4924475;29;20024;-67
2023/06/03 05:36:58;;;;;;;2.05;0.60;;;24.20;60.10;;;;;;4924527;29;20023;-67
2023/06/03 05:39:23;;;;;;;4.25;1.20;;;24.90;58.90;;;;;;4924718;29;20395;-68
2023/06/03 05:41:49;;;;;;;1.35;0.88;;;24.90;58.70;;;;;;4927183;29;20027;-68
2023/06/03 05:44:14;;;;;;;1.70;0.90;;;24.10;59.80;;;;;;4929858;29;20769;-68
2023/06/03 05:46:40;;;;;;;5.97;1.00;;;25.00;58.00;;;;;;4929154;29;20043;-67
2023/06/03 05:49:06;;;;;;;1.48;1.10;;;25.00;59.00;;;;;;4930885;29;20035;-67
2023/06/03 05:51:31;;;;;;;3.08;1.05;;;25.10;58.30;;;;;;4930455;29;20112;-67
2023/06/03 05:53:57;;;;;;;3.10;1.08;;;26.10;57.00;;;;;;4926011;29;20411;-67
2023/06/03 05:56:22;;;;;;;2.88;0.98;;;25.70;57.80;;;;;;4928252;29;20035;-68
2023/06/03 05:58:48;;;;;;;1.38;0.70;;;24.80;57.50;;;;;;4929558;29;20031;-67
2023/06/03 06:01:13;;;;;;;7.43;1.10;;;25.00;58.00;;;;;;4929874;29;20058;-67
2023/06/03 06:03:41;;;;;;;2.33;0.95;;;26.40;55.90;;;;;;4930598;29;20141;-66
2023/06/03 06:06:06;;;;;;;1.90;0.90;;;26.00;54.40;;;;;;4929504;29;20027;-67
2023/06/03 06:08:32;;;;;;;1.55;1.10;;;25.00;56.10;;;;;;4919056;29;20051;-67
2023/06/03 06:10:57;;;;;;;4.57;1.55;;;24.60;55.90;;;;;;4935893;29;20393;-68
2023/06/03 06:13:23;;;;;;;1.73;0.77;;;24.00;59.10;;;;;;4934638;29;20397;-66
2023/06/03 06:16:01;;;;;;;3.20;0.70;;;24.20;58.40;;;;;;4933412;29;20019;-69
2023/06/03 06:18:27;;;;;;;1.67;0.82;;;24.10;58.20;;;;;;4933793;29;20031;-67
2023/06/03 06:20:52;;;;;;;5.18;1.13;;;24.10;58.80;;;;;;4932803;29;20117;-66
2023/06/03 06:23:18;;;;;;;4.05;0.98;;;24.60;58.10;;;;;;4931636;29;20151;-67
2023/06/03 06:25:49;;;;;;;3.15;0.90;;;24.90;57.00;;;;;;4932565;29;20032;-66
2023/06/03 06:28:25;;;;;;;2.40;1.10;;;25.80;55.60;;;;;;4932788;29;20035;-66
2023/06/03 06:30:55;;;;;;;2.78;0.80;;;25.90;56.00;;;;;;4930149;29;20028;-67
2023/06/03 06:33:21;;;;;;;5.13;0.70;;;26.40;55.90;;;;;;4930895;29;20032;-67
2023/06/03 06:35:47;;;;;;;4.15;1.38;;;25.90;56.00;;;;;;4931520;29;20031;-68
2023/06/03 06:38:13;;;;;;;2.55;1.10;;;26.00;54.70;;;;;;4927546;29;20036;-67
2023/06/03 06:40:40;;;;;;;4.82;1.30;;;27.40;54.40;;;;;;4931994;29;20028;-66
2023/06/03 06:43:12;;;;;;;5.32;1.08;;;26.80;55.40;;;;;;4930435;29;20035;-68
2023/06/03 06:45:37;;;;;;;1.40;0.85;;;27.70;53.40;;;;;;4932244;29;20039;-67
2023/06/03 06:48:08;;;;;;;2.10;1.02;;;28.30;53.40;;;;;;4932207;29;20126;-67
2023/06/03 06:50:36;;;;;;;4.53;1.10;;;27.00;53.40;;;;;;4930804;29;20036;-64
2023/06/03 06:53:03;;;;;;;1.95;0.93;;;27.00;54.40;;;;;;4929336;29;20028;-67
2023/06/03 06:55:55;;;;;;;1.70;1.02;;;27.90;53.40;;;;;;4930156;29;20035;-68
2023/06/03 06:58:22;;;;;;;2.28;1.27;;;28.50;53.90;;;;;;4933015;29;20031;-67
2023/06/03 07:00:49;;;;;;;1.40;0.90;;;29.10;52.60;;;;;;4933256;29;20062;-67
2023/06/03 07:03:16;;;;;;;1.60;1.00;;;28.80;53.10;;;;;;4930011;29;20131;-68
2023/06/03 07:05:42;;;;;;;3.45;1.00;;;29.40;51.90;;;;;;4929243;29;20023;-67
2023/06/03 07:08:09;;;;;;;2.20;1.00;;;29.90;52.00;;;;;;4917930;29;20075;-68
2023/06/03 07:10:35;;;;;;;1.95;0.88;;;28.70;51.30;;;;;;4935596;29;20529;-67
2023/06/03 07:13:02;;;;;;;1.90;0.90;;;28.80;52.70;;;;;;4934055;29;20019;-67
2023/06/03 07:15:28;;;;;;;2.75;1.00;;;28.70;54.30;;;;;;4933038;29;20755;-67
2023/06/03 07:17:57;;;;;;;1.40;0.98;;;29.00;52.80;;;;;;4934360;29;20259;-67
2023/06/03 07:20:29;;;;;;;1.60;0.90;;;29.20;52.90;;;;;;4931766;29;20032;-66
2023/06/03 07:22:55;;;;;;;2.35;0.98;;;29.10;51.10;;;;;;4933055;29;20067;-67
2023/06/03 07:25:35;;;;;;;3.55;0.70;;;29.00;52.70;;;;;;4932651;29;20031;-66
2023/06/03 07:28:10;;;;;;;1.67;1.10;;;29.00;52.40;;;;;;4934072;29;20027;-66
2023/06/03 07:30:36;;;;;;;4.32;0.90;;;29.90;52.30;;;;;;4932841;29;20111;-64
2023/06/03 07:33:05;;;;;;;3.88;1.25;;;29.80;50.50;;;;;;4933438;29;20056;-67
2023/06/03 07:35:32;;;;;;;3.72;1.05;;;30.20;50.60;;;;;;4931326;29;20103;-66
2023/06/03 07:37:58;;;;;;;3.70;0.70;;;29.60;50.40;;;;;;4933585;29;20087;-68
2023/06/03 07:40:32;;;;;;;3.85;1.10;;;29.60;51.10;;;;;;4933453;29;20367;-65
2023/06/03 07:42:57;;;;;;;2.90;0.95;;;29.90;49.70;;;;;;4931503;29;20498;-67
2023/06/03 07:45:26;;;;;;;5.25;1.10;;;29.10;49.80;;;;;;4930777;29;20079;-67
2023/06/03 07:47:52;;;;;;;2.42;0.95;;;29.70;50.00;;;;;;4927420;29;20072;-68
2023/06/03 07:50:25;;;;;;;1.60;0.80;;;29.20;50.30;;;;;;4932602;29;20063;-69
2023/06/03 07:53:01;;;;;;;3.05;1.20;;;30.00;50.10;;;;;;4932795;29;20164;-65
2023/06/03 07:55:36;;;;;;;3.08;0.90;;;29.70;49.80;;;;;;4932573;29;20032;-68
2023/06/03 07:58:02;;;;;;;1.88;1.00;;;29.20;50.90;;;;;;4932558;29;20140;-66
2023/06/03 08:00:27;;;;;;;3.92;1.10;;;29.10;50.80;;;;;;4930714;29;20058;-66
2023/06/03 08:02:53;;;;;;;2.17;0.80;;;29.40;51.20;;;;;;4930889;29;20044;-68
2023/06/03 08:05:41;;;;;;;3.25;1.10;;;29.70;50.40;;;;;;4932636;29;20032;-65
2023/06/03 08:08:10;;;;;;;3.83;1.00;;;29.90;51.20;;;;;;4910238;29;20050;-66
2023/06/03 08:10:35;;;;;;;3.72;1.20;;;30.20;49.50;;;;;;4932918;29;20111;-64
2023/06/03 08:13:02;;;;;;;3.17;1.20;;;30.60;50.10;;;;;;4927778;29;20671;-66
2023/06/03 08:15:33;;;;;;;2.47;1.27;;;31.00;49.70;;;;;;4930421;29;20027;-65
2023/06/03 08:17:59;;;;;;;2.30;1.38;;;31.30;48.60;;;;;;4931389;29;20023;-65
2023/06/03 08:20:28;;;;;;;6.13;1.30;;;31.60;49.00;;;;;;4931481;29;20035;-66
2023/06/03 08:22:55;;;;;;;2.03;1.48;;;31.90;48.60;;;;;;4931838;29;20046;-65
2023/06/03 08:25:22;;;;;;;1.92;1.15;;;31.50;49.50;;;;;;4917923;29;20024;-65
2023/06/03 08:27:47;;;;;;;3.13;1.23;;;31.50;48.90;;;;;;4932802;29;20055;-65
2023/06/03 08:30:14;;;;;;;1.88;1.10;;;31.40;48.30;;;;;;4930086;29;21768;-65
2023/06/03 08:32:41;;;;;;;7.20;1.25;;;31.00;47.20;;;;;;4930118;29;20031;-67
2023/06/03 08:35:08;;;;;;;3.53;1.10;;;30.50;48.80;;;;;;4931267;29;20028;-65
2023/06/03 08:37:35;;;;;;;11.50;1.60;;;30.60;49.40;;;;;;4932418;29;20031;-66
2023/06/03 08:40:01;;;;;;;2.22;1.17;;;29.70;49.20;;;;;;4931287;29;20050;-65
2023/06/03 08:42:36;;;;;;;2.40;1.33;;;30.40;50.50;;;;;;4932777;29;20034;-65
2023/06/03 08:45:31;;;;;;;3.78;1.35;;;30.30;50.40;;;;;;4931746;29;20047;-65
2023/06/03 08:48:10;;;;;;;3.35;1.67;;;29.80;50.00;;;;;;4930928;29;20050;-66
2023/06/03 08:50:36;;;;;;;9.95;1.50;;;29.40;48.50;;;;;;4929889;29;20032;-64
2023/06/03 08:53:11;;;;;;;3.45;1.35;;;29.50;48.90;;;;;;4932218;29;20034;-67
2023/06/03 08:55:38;;;;;;;3.35;1.30;;;29.70;49.00;;;;;;4927317;29;20055;-66
2023/06/03 08:58:23;;;;;;;6.05;1.27;;;29.90;49.30;;;;;;4931520;29;20031;-66
2023/06/03 09:00:55;;;;;;;2.35;1.10;;;29.90;50.30;;;;;;4928477;29;20111;-67
2023/06/03 09:03:22;;;;;;;2.03;1.08;;;29.60;49.90;;;;;;4931519;29;20084;-64
2023/06/03 09:05:48;;;;;;;7.82;1.85;;;29.90;48.50;;;;;;4930440;29;20036;-65
2023/06/03 09:08:17;;;;;;;2.85;1.20;;;30.00;48.90;;;;;;4930227;29;20035;-66
2023/06/03 09:10:45;;;;;;;1.70;1.00;;;29.90;50.90;;;;;;4914932;29;20127;-65
2023/06/03 09:13:13;;;;;;;2.92;1.23;;;29.80;49.90;;;;;;4930684;29;20031;-65
2023/06/03 09:15:42;;;;;;;2.55;1.33;;;29.70;48.00;;;;;;4930897;29;20628;-67
2023/06/03 09:18:08;;;;;;;1.80;1.08;;;29.20;50.00;;;;;;4931620;29;20099;-66
2023/06/03 09:20:35;;;;;;;3.40;1.27;;;29.60;49.80;;;;;;4928942;29;20107;-69
2023/06/03 09:23:02;;;;;;;2.22;1.40;;;30.60;51.70;;;;;;4930399;29;20162;-65
2023/06/03 09:25:27;;;;;;;5.43;1.30;;;30.50;48.60;;;;;;4934945;29;20031;-66
2023/06/03 09:27:53;;;;;;;4.40;1.52;;;30.30;48.10;;;;;;4930973;29;20078;-67
2023/06/03 09:30:19;;;;;;;1.77;1.00;;;30.30;49.80;;;;;;4931154;29;20035;-67
2023/06/03 09:32:45;;;;;;;4.75;1.63;;;29.80;48.00;;;;;;4910395;29;20059;-68
2023/06/03 09:35:11;;;;;;;5.43;1.40;;;29.40;49.30;;;;;;4926781;29;20042;-65
2023/06/03 09:37:36;;;;;;;2.35;1.10;;;30.10;49.20;;;;;;4931316;29;20088;-66
2023/06/03 09:40:04;;;;;;;6.25;1.50;;;29.90;50.60;;;;;;4929088;29;20024;-66
2023/06/03 09:42:45;;;;;;;3.28;1.60;;;29.20;48.40;;;;;;4925545;29;20579;-65
2023/06/03 09:45:35;;;;;;;2.45;1.17;;;29.60;49.60;;;;;;4912090;29;20457;-65
2023/06/03 09:48:01;;;;;;;2.38;1.40;;;29.40;49.40;;;;;;4930045;29;20043;-66
2023/06/03 09:50:29;;;;;;;4.80;1.23;;;29.50;49.10;;;;;;4913716;29;20032;-65
2023/06/03 09:52:55;;;;;;;2.97;1.30;;;29.60;48.80;;;;;;4917729;29;20031;-65
2023/06/03 09:55:28;;;;;;;6.90;1.40;;;29.20;48.60;;;;;;4915382;29;20861;-65
2023/06/03 09:58:09;;;;;;;4.45;1.60;;;29.10;49.60;;;;;;4923496;29;20032;-65
2023/06/03 10:00:51;;;;;;;3.55;1.27;;;28.90;49.60;;;;;;4931469;29;20036;-65
2023/06/03 10:03:22;;;;;;;4.05;1.77;;;29.20;48.70;;;;;;4927890;29;20032;-66
2023/06/03 10:05:48;;;;;;;2.33;1.48;;;28.90;49.00;;;;;;4925090;29;20103;-66
2023/06/03 10:08:13;;;;;;;3.28;1.65;;;28.10;49.70;;;;;;4927892;29;20557;-66
2023/06/03 10:10:59;;;;;;;4.90;1.48;;;27.70;50.50;;;;;;4916111;29;20043;-65
2023/06/03 10:13:25;;;;;;;4.80;1.40;;;27.30;51.80;;;;;;4928146;29;20027;-66
2023/06/03 10:15:54;;;;;;;4.65;1.63;;;26.90;52.30;;;;;;4929173;29;20039;-66
2023/06/03 10:18:55;;;;;;;1.77;1.20;;;26.40;52.00;;;;;;4930123;29;20158;-65
2023/06/03 10:21:21;;;;;;;4.88;1.40;;;26.60;52.10;;;;;;4847226;29;20137;-66
2023/06/03 10:23:48;;;;;;;4.05;1.63;;;25.90;52.30;;;;;;4912151;29;20405;-65
2023/06/03 10:26:16;;;;;;;4.97;1.55;;;25.80;53.40;;;;;;4930531;29;20024;-66
2023/06/03 10:28:46;;;;;;;4.53;1.25;;;25.90;53.50;;;;;;4931775;29;20040;-66
2023/06/03 10:31:12;;;;;;;2.53;1.60;;;26.00;54.00;;;;;;4929564;29;20114;-66
2023/06/03 10:33:39;;;;;;;3.75;1.48;;;25.40;54.50;;;;;;4929272;29;20020;-67
2023/06/03 10:36:06;;;;;;;7.75;1.80;;;25.50;54.00;;;;;;4926067;29;20047;-66
2023/06/03 10:38:32;;;;;;;6.43;1.65;;;24.90;53.20;;;;;;4921091;29;20039;-68
2023/06/03 10:41:00;;;;;;;5.43;2.33;;;24.70;53.10;;;;;;4923904;29;20032;-67
2023/06/03 10:43:29;;;;;;;2.53;1.45;;;24.50;54.00;;;;;;4918737;29;20075;-65
2023/06/03 10:45:57;;;;;;;4.75;1.50;;;24.60;55.70;;;;;;4920793;29;20510;-66
2023/06/03 10:48:24;;;;;;;2.92;1.65;;;24.90;56.20;;;;;;4922377;29;20041;-66
2023/06/03 10:50:58;;;;;;;1.65;1.27;;;25.30;55.10;;;;;;4933425;29;20031;-66
2023/06/03 10:54:04;;;;;;;4.60;1.55;;;25.50;54.50;;;;;;4933357;29;20569;-66
2023/06/03 10:56:36;;;;;;;2.50;1.35;;;25.50;52.30;;;;;;4932111;29;20571;-68
2023/06/03 10:59:04;;;;;;;3.72;1.60;;;25.80;55.00;;;;;;4929257;29;20511;-66
2023/06/03 11:01:55;;;;;;;4.18;1.65;;;25.60;53.10;;;;;;4939397;29;20039;-67
2023/06/03 11:04:21;;;;;;;4.75;1.67;;;25.60;54.80;;;;;;4929890;29;20064;-67
2023/06/03 11:06:47;;;;;;;3.30;1.65;;;25.20;54.30;;;;;;4932527;29;20437;-67
2023/06/03 11:09:17;;;;;;;3.38;1.67;;;25.30;56.20;;;;;;4918387;29;20058;-66
2023/06/03 11:11:43;;;;;;;4.10;1.92;;;25.30;54.30;;;;;;4929262;29;20027;-66
2023/06/03 11:14:09;;;;;;;3.20;1.58;;;25.30;55.80;;;;;;4926158;29;20035;-66
2023/06/03 11:16:57;;;;;;;5.88;2.25;;;25.40;56.40;;;;;;4921200;29;20028;-68
2023/06/03 11:19:33;;;;;;;6.45;1.85;;;25.20;55.50;;;;;;4917259;29;20103;-67
2023/06/03 11:22:04;;;;;;;5.45;2.00;;;25.10;55.10;;;;;;4928069;29;20027;-66
2023/06/03 11:24:39;;;;;;;6.15;2.13;;;24.80;55.70;;;;;;4932776;29;20371;-66
2023/06/03 11:27:18;;;;;;;3.33;1.95;;;24.70;54.10;;;;;;4923939;29;21844;-66
2023/06/03 11:29:44;;;;;;;4.22;1.88;;;24.50;54.50;;;;;;4928050;29;20442;-66
2023/06/03 11:32:14;;;;;;;5.65;2.53;;;24.30;56.90;;;;;;4933257;29;20039;-66
2023/06/03 11:34:40;;;;;;;2.20;1.70;;;24.10;54.80;;;;;;4932884;29;20075;-66
2023/06/03 11:37:06;;;;;;;4.75;1.92;;;24.00;53.90;;;;;;4932754;29;20028;-67
2023/06/03 11:40:05;;;;;;;3.33;1.92;;;24.00;55.50;;;;;;4933904;29;20031;-67
2023/06/03 11:42:31;;;;;;;2.50;1.40;;;24.20;53.80;;;;;;4927025;29;21619;-66
2023/06/03 11:45:24;;;;;;;3.17;1.77;;;24.10;55.10;;;;;;4920288;29;20031;-65
2023/06/03 11:47:56;;;;;;;4.47;1.98;;;24.20;55.80;;;;;;4932039;29;20087;-67
2023/06/03 11:50:24;;;;;;;6.55;1.70;;;24.40;57.00;;;;;;4930907;29;20023;-66
2023/06/03 11:52:50;;;;;;;3.22;1.80;;;24.40;56.10;;;;;;4930760;29;20031;-67
2023/06/03 11:55:32;;;;;;;3.40;2.20;;;24.40;55.90;;;;;;4932831;29;20049;-66
2023/06/03 11:58:14;;;;;;;4.50;2.00;;;24.30;55.00;;;;;;4928763;29;20035;-66
2023/06/03 12:00:40;;;;;;;2.33;1.33;;;23.80;53.80;;;;;;4929577;29;20028;-65
2023/06/03 12:03:12;;;;;;;5.45;1.80;;;23.70;56.20;;;;;;4933239;29;20030;-66
2023/06/03 12:05:55;;;;;;;5.60;1.88;;;24.00;57.20;;;;;;4932081;29;20035;-67
2023/06/03 12:08:21;;;;;;;3.45;1.67;;;23.80;53.80;;;;;;4928171;29;20119;-66
2023/06/03 12:10:47;;;;;;;3.95;1.88;;;23.80;54.10;;;;;;4911401;29;20055;-66
2023/06/03 12:13:13;;;;;;;4.57;1.92;;;23.60;54.60;;;;;;4923254;29;20031;-65
2023/06/03 12:15:47;;;;;;;3.80;1.65;;;23.50;56.20;;;;;;4920707;29;20079;-66
2023/06/03 12:18:13;;;;;;;3.70;1.70;;;23.50;54.00;;;;;;4922991;29;20483;-66
2023/06/03 12:20:38;;;;;;;3.20;1.58;;;23.40;54.10;;;;;;4925414;29;20055;-65
2023/06/03 12:23:05;;;;;;;5.45;1.75;;;23.40;54.20;;;;;;4923446;29;20479;-66
2023/06/03 12:25:33;;;;;;;2.45;1.40;;;23.40;53.30;;;;;;4922872;29;20058;-66
2023/06/03 12:28:18;;;;;;;3.70;1.98;;;23.30;54.90;;;;;;4927440;29;20704;-66
2023/06/03 12:30:44;;;;;;;2.92;1.67;;;23.40;55.50;;;;;;4931157;29;20445;-66
2023/06/03 12:33:10;;;;;;;6.10;1.70;;;23.50;56.20;;;;;;4932796;29;20024;-67
2023/06/03 12:35:36;;;;;;;4.68;1.88;;;23.60;54.10;;;;;;4931605;29;20092;-66
2023/06/03 12:38:06;;;;;;;2.25;1.70;;;23.50;53.40;;;;;;4930805;29;20080;-66
2023/06/03 12:40:34;;;;;;;2.72;1.45;;;23.50;53.90;;;;;;4929887;29;20032;-67
2023/06/03 12:43:00;;;;;;;3.67;1.58;;;23.60;55.30;;;;;;4930516;29;20035;-66
2023/06/03 12:45:26;;;;;;;4.45;1.92;;;23.30;53.90;;;;;;4930668;29;20027;-66
2023/06/03 12:47:53;;;;;;;5.13;2.00;;;23.30;53.70;;;;;;4921568;29;20028;-66
2023/06/03 12:50:20;;;;;;;2.65;1.40;;;23.30;55.50;;;;;;4916872;29;20114;-67
2023/06/03 12:52:47;;;;;;;8.35;1.70;;;23.20;54.90;;;;;;4924670;29;20032;-65